Cherokee Observed Data For Previous 48 Hours

Caption
Day and Hour Reservoir Elevation (behind dam)* Tailwater Elevation (below dam)* Average Hourly Discharge*
10/19/2018 2 AM EDT 1,057.54 923.90 4,032
10/19/2018 3 AM EDT 1,057.57 921.04 69
10/19/2018 4 AM EDT 1,057.57 920.94 0
10/19/2018 5 AM EDT 1,057.58 921.96 142
10/19/2018 6 AM EDT 1,057.60 921.47 2,079
10/19/2018 7 AM EDT 1,057.62 920.94 0
10/19/2018 8 AM EDT 1,057.65 920.93 0
10/19/2018 9 AM EDT 1,057.65 920.93 0
10/19/2018 10 AM EDT 1,057.68 920.93 0
10/19/2018 11 AM EDT 1,057.68 921.93 137
10/19/2018 12 PM EDT 1,057.69 921.45 2,081
10/19/2018 1 PM EDT 1,057.71 920.93 0
10/19/2018 2 PM EDT 1,057.73 920.93 0
10/19/2018 3 PM EDT 1,057.72 921.99 146
10/19/2018 4 PM EDT 1,057.71 924.44 3,977
10/19/2018 5 PM EDT 1,057.69 926.22 8,534
10/19/2018 6 PM EDT 1,057.70 926.25 8,624
10/19/2018 7 PM EDT 1,057.69 926.23 8,634
10/19/2018 8 PM EDT 1,057.66 926.25 8,679
10/19/2018 9 PM EDT 1,057.63 926.26 8,679
10/19/2018 10 PM EDT 1,057.63 926.26 8,689
10/19/2018 11 PM EDT 1,057.62 926.22 8,614
10/20/2018 12 AM EDT 1,057.61 926.25 8,615
10/20/2018 1 AM EDT 1,057.59 926.23 8,619
10/20/2018 2 AM EDT 1,057.61 923.94 3,995
10/20/2018 3 AM EDT 1,057.63 921.04 68
10/20/2018 4 AM EDT 1,057.63 920.93 0
10/20/2018 5 AM EDT 1,057.63 920.94 0
10/20/2018 6 AM EDT 1,057.68 920.94 0
10/20/2018 7 AM EDT 1,057.69 922.00 147
10/20/2018 8 AM EDT 1,057.69 923.87 3,890
10/20/2018 9 AM EDT 1,057.72 923.89 3,876
10/20/2018 10 AM EDT 1,057.68 925.81 4,778
10/20/2018 11 AM EDT 1,057.73 926.23 8,564
10/20/2018 12 PM EDT 1,057.67 926.21 8,634
10/20/2018 1 PM EDT 1,057.67 926.25 8,633
10/20/2018 2 PM EDT 1,057.63 926.22 8,591
10/20/2018 3 PM EDT 1,057.63 926.26 8,598
10/20/2018 4 PM EDT 1,057.61 926.25 8,608
10/20/2018 5 PM EDT 1,057.58 926.21 8,602
10/20/2018 6 PM EDT 1,057.57 926.19 8,585
10/20/2018 7 PM EDT 1,057.57 926.18 8,598
10/20/2018 8 PM EDT 1,057.55 926.22 8,595
10/20/2018 9 PM EDT 1,057.53 926.23 8,627
10/20/2018 10 PM EDT 1,057.51 926.25 8,615
10/20/2018 11 PM EDT 1,057.53 923.91 4,007
10/21/2018 12 AM EDT 1,057.53 923.87 3,864
10/21/2018 1 AM EDT 1,057.57 923.89 3,863
10/21/2018 2 AM EDT 1,057.54 923.88 3,875
10/21/2018 3 AM EDT 1,057.59 921.04 71
10/21/2018 4 AM EDT 1,057.58 920.94 0
10/21/2018 5 AM EDT 1,057.58 920.94 0
10/21/2018 6 AM EDT 1,057.59 923.74 1,759
10/21/2018 7 AM EDT 1,057.60 923.90 3,867
10/21/2018 8 AM EDT 1,057.59 924.69 4,043
10/21/2018 9 AM EDT 1,057.58 926.20 8,429

Elevations are in feet above sea level. Discharges are in cubic feet per second and are reported at the end of the hour.